| time (UTC) | temp F | wind direction | speed MPH | gust MPH | rain 1hr in | rain 24hr in | rain mn in | humidity % | barometer mb |
| 20260831021520 | 81 | 94 | 0.0 | 2.0 | 0.00 | 0.00 | 0.00 | 59 | 1015.7 |
| 20260831020008 | 82 | 334 | 1.0 | 3.0 | 0.00 | 0.00 | 0.00 | 57 | 1015.5 |
| 20260831014513 | 83 | 76 | 0.0 | 3.0 | 0.00 | 0.00 | 0.00 | 55 | 1015.3 |
| 20260831013006 | 85 | 94 | 0.0 | 2.0 | 0.00 | 0.00 | 0.00 | 52 | 1015.0 |
| 20260831011512 | 86 | 75 | 1.0 | 3.0 | 0.00 | 0.00 | 0.00 | 50 | 1015.1 |
| 20260831010028 | 86 | 352 | 0.0 | 2.0 | 0.00 | 0.00 | 0.00 | 51 | 1015.0 |
| 20260831004510 | 88 | 155 | 0.0 | 3.0 | 0.00 | 0.00 | 0.00 | 50 | 1015.0 |
| 20260831003016 | 89 | 213 | 0.0 | 5.0 | 0.00 | 0.00 | 0.00 | 50 | 1015.1 |
| 20260831001518 | 89 | 316 | 0.0 | 3.0 | 0.00 | 0.00 | 0.00 | 49 | 1014.9 |
| 20260831000015 | 91 | 207 | 1.0 | 5.0 | 0.00 | 0.00 | 0.00 | 45 | 1014.8 |
| 20260830234517 | 93 | 279 | 2.0 | 6.0 | 0.00 | 0.00 | 0.00 | 41 | 1015.0 |
| 20260830233018 | 94 | 330 | 2.0 | 8.0 | 0.00 | 0.00 | 0.00 | 39 | 1014.9 |
| 20260830231526 | 95 | 175 | 1.0 | 4.0 | 0.00 | 0.00 | 0.00 | 34 | 1014.9 |
| 20260830230013 | 96 | 297 | 0.0 | 5.0 | 0.00 | 0.00 | 0.00 | 35 | 1014.9 |
| 20260830224519 | 97 | 200 | 1.0 | 5.0 | 0.00 | 0.00 | 0.00 | 32 | 1014.9 |
| 20260830223027 | 96 | 296 | 0.0 | 7.0 | 0.00 | 0.00 | 0.00 | 34 | 1014.9 |
| 20260830221526 | 97 | 250 | 2.0 | 7.0 | 0.00 | 0.00 | 0.00 | 32 | 1014.9 |
| 20260830220014 | 97 | 309 | 0.0 | 6.0 | 0.00 | 0.00 | 0.00 | 34 | 1014.9 |
| 20260830214518 | 97 | 205 | 1.0 | 8.0 | 0.00 | 0.00 | 0.00 | 33 | 1014.9 |
| 20260830213012 | 98 | 205 | 2.0 | 10.0 | 0.00 | 0.00 | 0.00 | 32 | 1015.0 |
| 20260830211528 | 97 | 304 | 1.0 | 5.0 | 0.00 | 0.00 | 0.00 | 32 | 1015.1 |
| 20260830210029 | 98 | 331 | 1.0 | 6.0 | 0.00 | 0.00 | 0.00 | 34 | 1015.1 |
| 20260830204515 | 98 | 247 | 2.0 | 7.0 | 0.00 | 0.00 | 0.00 | 32 | 1015.2 |
| 20260830203024 | 97 | 94 | 1.0 | 7.0 | 0.00 | 0.00 | 0.00 | 32 | 1015.4 |
| 20260830201517 | 97 | 352 | 1.0 | 6.0 | 0.00 | 0.00 | 0.00 | 32 | 1015.5 |
| 20260830200016 | 97 | 180 | 2.0 | 6.0 | 0.00 | 0.00 | 0.00 | 33 | 1015.5 |
| 20260830194536 | 98 | 131 | 1.0 | 10.0 | 0.00 | 0.00 | 0.00 | 33 | 1015.6 |
| 20260830193008 | 97 | 67 | 2.0 | 6.0 | 0.00 | 0.00 | 0.00 | 33 | 1015.9 |
| 20260830191507 | 98 | 236 | 1.0 | 5.0 | 0.00 | 0.00 | 0.00 | 32 | 1015.9 |
| 20260830190012 | 98 | 196 | 2.0 | 9.0 | 0.00 | 0.00 | 0.00 | 33 | 1016.3 |
| 20260830184510 | 97 | 286 | 1.0 | 5.0 | 0.00 | 0.00 | 0.00 | 35 | 1016.3 |
| 20260830183016 | 95 | 342 | 1.0 | 8.0 | 0.00 | 0.00 | 0.00 | 38 | 1016.5 |
| 20260830181504 | 95 | 269 | 2.0 | 8.0 | 0.00 | 0.00 | 0.00 | 36 | 1016.5 |
| 20260830180004 | 96 | 126 | 2.0 | 6.0 | 0.00 | 0.00 | 0.00 | 36 | 1016.7 |
| 20260830174522 | 95 | 287 | 3.0 | 7.0 | 0.00 | 0.00 | 0.00 | 37 | 1017.2 |
| 20260830173004 | 93 | 205 | 1.0 | 10.0 | 0.00 | 0.00 | 0.00 | 39 | 1017.2 |
| 20260830171505 | 94 | 218 | 1.0 | 9.0 | 0.00 | 0.00 | 0.00 | 38 | 1017.3 |
| 20260830170003 | 93 | 269 | 2.0 | 7.0 | 0.00 | 0.00 | 0.00 | 40 | 1017.5 |
| 20260830164506 | 92 | 97 | 3.0 | 6.0 | 0.00 | 0.00 | 0.00 | 42 | 1017.6 |
| 20260830163004 | 91 | 309 | 4.0 | 10.0 | 0.00 | 0.00 | 0.00 | 43 | 1017.9 |
| 20260830161505 | 90 | 319 | 1.0 | 6.0 | 0.00 | 0.00 | 0.00 | 45 | 1018.1 |
| 20260830160003 | 89 | 281 | 2.0 | 11.0 | 0.00 | 0.00 | 0.00 | 45 | 1018.0 |
| 20260830154503 | 88 | 220 | 2.0 | 6.0 | 0.00 | 0.00 | 0.00 | 49 | 1018.0 |
| 20260830153008 | 85 | 230 | 1.0 | 8.0 | 0.00 | 0.00 | 0.00 | 53 | 1018.1 |
| 20260830151508 | 84 | 319 | 2.0 | 11.0 | 0.00 | 0.00 | 0.00 | 54 | 1018.1 |
| 20260830150007 | 83 | 197 | 4.0 | 11.0 | 0.00 | 0.00 | 0.00 | 57 | 1018.0 |
| 20260830144510 | 81 | 184 | 2.0 | 5.0 | 0.00 | 0.00 | 0.00 | 59 | 1017.9 |
| 20260830143008 | 79 | 62 | 1.0 | 3.0 | 0.00 | 0.00 | 0.00 | 65 | 1017.9 |
| 20260830141507 | 77 | 109 | 1.0 | 4.0 | 0.00 | 0.00 | 0.00 | 65 | 1017.9 |
| 20260830140012 | 75 | 102 | 0.0 | 2.0 | 0.00 | 0.00 | 0.00 | 69 | 1018.0 |
| 20260830134534 | 73 | 169 | 0.0 | 2.0 | 0.00 | 0.00 | 0.00 | 72 | 1018.1 |
| 20260830133007 | 70 | 191 | 0.0 | 1.0 | 0.00 | 0.00 | 0.00 | 76 | 1018.1 |
| 20260830131518 | 68 | 193 | 0.0 | 2.0 | 0.00 | 0.00 | 0.00 | 81 | 1018.2 |
| 20260830130013 | 66 | 257 | 0.0 | 1.0 | 0.00 | 0.00 | 0.00 | 84 | 1018.2 |
| 20260830124509 | 65 | 257 | 0.0 | 1.0 | 0.00 | 0.00 | 0.00 | 85 | 1018.1 |
| 20260830123021 | 64 | 283 | 0.0 | 1.0 | 0.00 | 0.00 | 0.00 | 86 | 1018.1 |
| 20260830121511 | 64 | 302 | 0.0 | 2.0 | 0.00 | 0.00 | 0.00 | 86 | 1017.9 |
| 20260830120017 | 64 | 302 | 0.0 | 1.0 | 0.00 | 0.00 | 0.00 | 86 | 1017.9 |
| 20260830114524 | 64 | 302 | 0.0 | 2.0 | 0.00 | 0.00 | 0.00 | 86 | 1017.7 |
| 20260830113024 | 64 | 304 | 0.0 | 2.0 | 0.00 | 0.00 | 0.00 | 87 | 1017.5 |
| 20260830111516 | 64 | 304 | 0.0 | 1.0 | 0.00 | 0.00 | 0.00 | 86 | 1017.4 |
| 20260830110017 | 64 | 264 | 0.0 | 2.0 | 0.00 | 0.00 | 0.00 | 86 | 1017.4 |
| 20260830104526 | 64 | 238 | 0.0 | 2.0 | 0.00 | 0.00 | 0.00 | 86 | 1017.3 |
| 20260830103006 | 64 | 263 | 0.0 | 1.0 | 0.00 | 0.00 | 0.00 | 86 | 1017.3 |
| 20260830101507 | 64 | 319 | 0.0 | 2.0 | 0.00 | 0.00 | 0.00 | 85 | 1017.2 |
| 20260830100010 | 64 | 306 | 0.0 | 2.0 | 0.00 | 0.00 | 0.00 | 84 | 1017.2 |
| 20260830094509 | 64 | 281 | 0.0 | 1.0 | 0.00 | 0.00 | 0.00 | 83 | 1017.5 |
| 20260830093011 | 64 | 255 | 0.0 | 2.0 | 0.00 | 0.00 | 0.00 | 84 | 1017.5 |
| 20260830091509 | 65 | 270 | 0.0 | 1.0 | 0.00 | 0.00 | 0.00 | 83 | 1017.5 |
| 20260830090006 | 65 | 270 | 0.0 | 1.0 | 0.00 | 0.00 | 0.00 | 82 | 1017.5 |
| 20260830084513 | 65 | 271 | 0.0 | 1.0 | 0.00 | 0.00 | 0.00 | 83 | 1017.5 |
| 20260830083015 | 66 | 262 | 0.0 | 1.0 | 0.00 | 0.00 | 0.00 | 81 | 1017.4 |
| 20260830081524 | 66 | 262 | 0.0 | 1.0 | 0.00 | 0.00 | 0.00 | 79 | 1017.3 |
| 20260830080013 | 67 | 261 | 0.0 | 1.0 | 0.00 | 0.00 | 0.00 | 79 | 1017.5 |
| 20260830074526 | 67 | 232 | 0.0 | 1.0 | 0.00 | 0.00 | 0.00 | 77 | 1017.5 |
| 20260830073012 | 68 | 230 | 0.0 | 1.0 | 0.00 | 0.00 | 0.00 | 77 | 1017.3 |
| 20260830071523 | 68 | 215 | 0.0 | 1.0 | 0.00 | 0.00 | 0.00 | 75 | 1017.4 |
| 20260830070024 | 69 | 178 | 0.0 | 1.0 | 0.00 | 0.00 | 0.00 | 75 | 1017.5 |
| 20260830064517 | 70 | 177 | 0.0 | 1.0 | 0.00 | 0.00 | 0.00 | 72 | 1017.5 |
| 20260830063022 | 70 | 173 | 0.0 | 1.0 | 0.00 | 0.00 | 0.00 | 70 | 1017.5 |
| 20260830061525 | 71 | 183 | 0.0 | 2.0 | 0.00 | 0.00 | 0.00 | 71 | 1017.6 |
| 20260830060017 | 70 | 96 | 1.0 | 2.0 | 0.00 | 0.00 | 0.00 | 75 | 1017.6 |
| 20260830054521 | 69 | 146 | 0.0 | 3.0 | 0.00 | 0.00 | 0.00 | 80 | 1017.3 |
| 20260830053018 | 69 | 274 | 0.0 | 1.0 | 0.00 | 0.00 | 0.00 | 78 | 1017.4 |
| 20260830051541 | 70 | 177 | 0.0 | 1.0 | 0.00 | 0.00 | 0.00 | 74 | 1017.4 |
| 20260830050029 | 70 | 177 | 0.0 | 1.0 | 0.00 | 0.00 | 0.00 | 74 | 1017.5 |
| 20260830044527 | 71 | 177 | 0.0 | 1.0 | 0.00 | 0.00 | 0.00 | 75 | 1017.4 |
| 20260830043018 | 71 | 177 | 0.0 | 1.0 | 0.00 | 0.00 | 0.00 | 75 | 1017.5 |
| 20260830041551 | 72 | 177 | 0.0 | 1.0 | 0.00 | 0.00 | 0.00 | 72 | 1017.4 |
| 20260830040032 | 72 | 177 | 0.0 | 1.0 | 0.00 | 0.00 | 0.00 | 72 | 1017.4 |
| 20260830034530 | 73 | 177 | 0.0 | 1.0 | 0.00 | 0.00 | 0.00 | 1017.3 | |
| 20260830033028 | 74 | 177 | 0.0 | 1.0 | 0.00 | 0.00 | 0.00 | 71 | 1017.5 |
| 20260830031522 | 75 | 172 | 0.0 | 1.0 | 0.00 | 0.00 | 0.00 | 69 | 1017.4 |
| 20260830030027 | 76 | 171 | 0.0 | 1.0 | 0.00 | 0.00 | 0.00 | 66 | 1017.3 |
| 20260830024540 | 77 | 160 | 0.0 | 1.0 | 0.00 | 0.00 | 0.00 | 65 | 1017.1 |
| 20260830023009 | 78 | 178 | 0.0 | 2.0 | 0.00 | 0.00 | 0.00 | 63 | 1017.1 |